CheckWX is a tool to help pilots better visualize weather data.  It is not intended as a substitute for an official pre-flight weather briefing.

02:56:56 UTC

EHWO METAR
Woensdrecht Air Base Airport
Bergen Op Zoom, The Netherlands
Current

32 mins ago

EHWO 230225Z AUTO VRB02KT 9999 OVC370 14/14 Q1021 BLU
Observed
Jul-23 @ 02:25 UTC
Wind
  • Variable at 2 KTS
Visibility
10,000+ meters
Flight Rules
VFR
Cloud Levels
  • Overcast at 37,000' AGL
Temperature
14°C / 57°F
Dewpoint
14°C / 57°F
Humidity
100%
Altimeter
30.15" Hg
Pressure
1020.92 hPa
Previous

1 hour ago

EHWO 230155Z AUTO 16002KT 9999 NCD 15/14 Q1021 BLU
Observed
Jul-23 @ 01:55 UTC
Wind
  • 160° at 2 KTS
Visibility
10,000+ meters
Flight Rules
VFR
Cloud Levels
  • Clear skies
Temperature
15°C / 59°F
Dewpoint
14°C / 57°F
Humidity
94%
Altimeter
30.15" Hg
Pressure
1020.92 hPa
Previous

2 hours ago

EHWO 230125Z AUTO 13001KT 9999 NCD 14/14 Q1021 BLU
Observed
Jul-23 @ 01:25 UTC
Wind
  • 130° at 1 KTS
Visibility
10,000+ meters
Flight Rules
VFR
Cloud Levels
  • Clear skies
Temperature
14°C / 57°F
Dewpoint
14°C / 57°F
Humidity
100%
Altimeter
30.15" Hg
Pressure
1020.92 hPa